Time;durP1;ratioP1;P1;durP2;ratioP2;P2;SDS_P1;SDS_P2;PMS_P1;PMS_P2;Temp;Humidity;BMP_temperature;BMP_pressure;BME280_temperature;BME280_humidity;BME280_pressure;Samples;Min_cycle;Max_cycle;Signal;HPM_P1;HPM_P2
2021/07/04 03:01:54;;;;;;;5.10;2.50;;;24.20;67.40;;;;;;6149309;22;1317135;-53
2021/07/04 03:04:19;;;;;;;3.80;1.98;;;24.20;67.40;;;;;;6234702;23;20031;-52
2021/07/04 03:06:45;;;;;;;4.75;2.35;;;24.10;67.40;;;;;;6234740;23;20073;-52
2021/07/04 03:09:11;;;;;;;5.28;1.92;;;24.20;67.40;;;;;;6223364;23;20065;-52
2021/07/04 03:11:36;;;;;;;4.10;2.30;;;24.10;67.40;;;;;;6205072;23;20054;-51
2021/07/04 03:14:02;;;;;;;4.30;2.30;;;24.20;67.40;;;;;;6205049;23;20072;-51
2021/07/04 03:16:28;;;;;;;3.65;2.05;;;24.10;67.30;;;;;;6204467;23;20080;-51
2021/07/04 03:18:53;;;;;;;3.72;2.00;;;24.20;67.40;;;;;;6204745;23;20035;-53
2021/07/04 03:21:19;;;;;;;4.65;2.55;;;24.20;67.50;;;;;;6205180;23;20004;-51
2021/07/04 03:23:44;;;;;;;6.70;2.53;;;24.20;67.50;;;;;;6205157;23;20008;-51
2021/07/04 03:26:10;;;;;;;4.25;2.15;;;24.10;67.40;;;;;;6205140;23;20008;-51
2021/07/04 03:28:36;;;;;;;4.10;2.15;;;24.10;67.40;;;;;;6205017;23;19997;-50
2021/07/04 03:31:01;;;;;;;4.72;2.92;;;24.10;67.40;;;;;;6204940;23;20012;-51
2021/07/04 03:34:51;;;;;;;3.75;2.20;;;24.20;67.00;;;;;;5100759;27;20887;-50
2021/07/04 03:37:17;;;;;;;5.30;2.28;;;24.10;67.40;;;;;;5100209;28;20055;-51
2021/07/04 03:39:43;;;;;;;4.40;2.42;;;24.10;67.40;;;;;;5113033;28;20477;-55
2021/07/04 03:42:10;;;;;;;3.60;2.20;;;24.10;67.40;;;;;;5121119;28;20656;-51
2021/07/04 03:44:36;;;;;;;3.80;2.20;;;24.10;67.40;;;;;;5120880;28;20107;-52
2021/07/04 03:47:02;;;;;;;3.50;2.10;;;24.20;67.50;;;;;;5121022;28;20020;-52
2021/07/04 03:49:28;;;;;;;4.22;2.22;;;24.20;67.40;;;;;;5120802;28;20088;-50
2021/07/04 03:51:53;;;;;;;3.60;1.92;;;24.20;67.40;;;;;;5120950;28;20027;-50
2021/07/04 03:56:08;;;;;;;4.45;2.58;;;24.10;66.80;;;;;;5080442;27;20514;-50
2021/07/04 03:58:33;;;;;;;3.80;2.20;;;24.20;67.30;;;;;;5079579;28;20127;-51
2021/07/04 04:00:59;;;;;;;3.90;2.05;;;24.20;67.40;;;;;;5079727;28;20467;-51
2021/07/04 04:03:25;;;;;;;4.53;2.08;;;24.10;67.30;;;;;;5080194;28;20379;-51
2021/07/04 04:05:51;;;;;;;4.10;2.30;;;24.10;67.30;;;;;;5078864;28;20733;-52
2021/07/04 04:09:46;;;;;;;3.50;1.90;;;24.20;67.00;;;;;;5121334;27;20479;-50
2021/07/04 04:12:12;;;;;;;9.10;2.25;;;24.10;67.30;;;;;;5121288;27;20027;-50
2021/07/04 04:14:38;;;;;;;4.32;2.42;;;24.20;67.40;;;;;;5119727;28;20138;-51
2021/07/04 04:17:04;;;;;;;3.67;1.90;;;24.20;67.40;;;;;;5120707;27;20031;-52
2021/07/04 04:19:29;;;;;;;3.42;1.95;;;24.20;67.40;;;;;;5121000;27;20016;-51
2021/07/04 04:21:55;;;;;;;3.90;2.40;;;24.20;67.40;;;;;;5121094;27;20023;-53
2021/07/04 04:25:37;;;;;;;3.60;1.75;;;24.20;66.90;;;;;;5100895;27;20477;-51
2021/07/04 04:28:05;;;;;;;3.97;2.08;;;24.20;67.40;;;;;;5100843;28;20063;-51
2021/07/04 04:30:33;;;;;;;4.40;2.08;;;24.20;67.30;;;;;;5100552;28;20028;-51
2021/07/04 04:32:59;;;;;;;3.95;2.40;;;24.20;67.30;;;;;;5100696;28;20028;-52
2021/07/04 04:35:25;;;;;;;3.58;1.77;;;24.20;67.30;;;;;;5100649;28;20683;-51
2021/07/04 04:39:20;;;;;;;3.78;1.88;;;24.20;66.90;;;;;;5040353;28;20989;-52
2021/07/04 04:41:47;;;;;;;4.75;1.90;;;24.20;67.30;;;;;;5040377;28;20056;-52
2021/07/04 04:44:14;;;;;;;4.88;2.05;;;24.20;67.40;;;;;;5040083;28;20025;-51
2021/07/04 04:46:39;;;;;;;4.22;2.00;;;24.20;67.40;;;;;;5040259;28;20388;-51
2021/07/04 04:49:05;;;;;;;4.18;2.30;;;24.20;67.30;;;;;;5039884;28;20072;-51
2021/07/04 04:51:31;;;;;;;4.90;2.25;;;24.20;67.20;;;;;;5040140;28;20102;-51
2021/07/04 04:53:56;;;;;;;3.67;2.03;;;24.20;67.20;;;;;;5040047;28;20432;-52
2021/07/04 04:56:22;;;;;;;4.55;2.30;;;24.20;67.50;;;;;;5039968;28;20026;-51
2021/07/04 04:58:48;;;;;;;3.92;2.10;;;24.20;67.20;;;;;;5039613;28;20037;-51
2021/07/04 05:01:13;;;;;;;6.60;2.40;;;24.20;67.30;;;;;;5039983;28;20021;-51
2021/07/04 05:03:39;;;;;;;3.90;2.17;;;24.20;67.40;;;;;;5038614;28;20535;-51
2021/07/04 05:06:05;;;;;;;4.18;2.13;;;24.30;67.40;;;;;;5039920;28;20036;-53
2021/07/04 05:08:30;;;;;;;4.38;2.15;;;24.20;67.30;;;;;;5039774;28;20033;-51
2021/07/04 05:10:57;;;;;;;10.32;2.63;;;24.30;67.30;;;;;;5039822;28;20080;-51
2021/07/04 05:13:23;;;;;;;5.50;2.38;;;24.30;67.30;;;;;;5037499;28;20060;-52
2021/07/04 05:15:50;;;;;;;6.43;2.35;;;24.30;67.40;;;;;;5039724;28;20048;-51
2021/07/04 05:18:16;;;;;;;5.63;2.92;;;24.30;67.40;;;;;;5039146;28;20033;-53
2021/07/04 05:20:41;;;;;;;3.95;1.90;;;24.30;67.20;;;;;;5039582;28;20104;-50
2021/07/04 05:23:07;;;;;;;4.68;2.22;;;24.30;67.50;;;;;;5039572;28;20032;-52
2021/07/04 05:25:33;;;;;;;4.22;1.98;;;24.30;67.70;;;;;;5039473;28;20018;-52
2021/07/04 05:27:58;;;;;;;5.72;2.35;;;24.30;68.00;;;;;;5039419;28;20530;-51
2021/07/04 05:30:24;;;;;;;7.65;1.95;;;24.30;67.70;;;;;;5039382;28;20132;-51
2021/07/04 05:32:50;;;;;;;5.82;2.42;;;24.30;67.80;;;;;;5039366;28;20022;-51
2021/07/04 05:35:15;;;;;;;6.30;2.03;;;24.30;67.60;;;;;;5039373;28;20586;-52
2021/07/04 05:37:41;;;;;;;5.82;2.00;;;24.30;67.50;;;;;;5033706;28;20049;-53
2021/07/04 05:40:13;;;;;;;5.22;2.55;;;24.30;67.40;;;;;;5028701;28;20037;-51
2021/07/04 05:43:51;;;;;;;9.38;1.92;;;24.30;67.40;;;;;;5093718;27;20513;-51
2021/07/04 05:46:16;;;;;;;4.72;1.90;;;24.30;67.70;;;;;;5095592;28;20070;-51
2021/07/04 05:48:45;;;;;;;6.20;2.22;;;24.30;67.70;;;;;;5095256;28;20020;-52
2021/07/04 05:51:12;;;;;;;7.47;2.20;;;24.30;67.60;;;;;;5093200;28;20012;-50
2021/07/04 05:53:37;;;;;;;6.78;2.33;;;24.30;67.70;;;;;;5070353;28;20821;-52
2021/07/04 05:56:03;;;;;;;7.85;2.47;;;24.30;67.70;;;;;;5066173;28;20098;-51
2021/07/04 05:58:29;;;;;;;4.43;2.30;;;24.30;67.80;;;;;;5067066;28;20013;-51
2021/07/04 06:00:55;;;;;;;6.72;2.33;;;24.30;68.10;;;;;;5065198;28;20029;-50
2021/07/04 06:03:20;;;;;;;9.30;2.65;;;24.30;68.10;;;;;;5068576;28;20078;-52
2021/07/04 06:05:46;;;;;;;5.43;2.00;;;24.30;68.10;;;;;;5065899;28;20491;-51
2021/07/04 06:08:12;;;;;;;11.23;3.10;;;24.30;67.90;;;;;;5064758;28;20029;-50
2021/07/04 06:10:38;;;;;;;7.43;2.20;;;24.30;68.00;;;;;;5061332;28;20044;-52
2021/07/04 06:13:04;;;;;;;8.75;2.83;;;24.30;68.00;;;;;;5059240;28;20020;-50
2021/07/04 06:15:30;;;;;;;22.20;3.78;;;24.30;67.90;;;;;;5059908;28;20048;-51
2021/07/04 06:17:56;;;;;;;5.60;2.42;;;24.30;67.90;;;;;;5058954;28;20017;-50
2021/07/04 06:20:22;;;;;;;8.07;2.40;;;24.30;67.80;;;;;;5063391;28;20497;-52
2021/07/04 06:22:49;;;;;;;8.18;2.90;;;24.30;67.90;;;;;;5059396;28;20033;-50
2021/07/04 06:25:16;;;;;;;7.57;2.42;;;24.30;68.00;;;;;;5058533;28;20021;-51
2021/07/04 06:27:42;;;;;;;12.95;2.90;;;24.30;68.00;;;;;;5059007;28;20033;-52
2021/07/04 06:30:10;;;;;;;12.23;2.70;;;24.30;68.10;;;;;;5060775;28;20017;-50
2021/07/04 06:32:37;;;;;;;4.95;2.50;;;24.30;68.10;;;;;;5069539;28;20372;-52
2021/07/04 06:35:05;;;;;;;7.25;2.50;;;24.30;68.10;;;;;;5067203;28;20090;-51
2021/07/04 06:37:30;;;;;;;7.80;2.45;;;24.30;67.70;;;;;;5067822;28;20104;-52
2021/07/04 06:40:32;;;;;;;11.95;3.25;;;24.30;67.30;;;;;;5053897;27;20501;-51
2021/07/04 06:42:58;;;;;;;9.45;2.90;;;24.30;67.70;;;;;;5045302;28;20060;-52
2021/07/04 06:45:24;;;;;;;7.75;3.20;;;24.30;67.90;;;;;;5054097;28;20036;-51
2021/07/04 06:47:50;;;;;;;8.20;2.70;;;24.30;67.90;;;;;;5049127;28;20533;-51
2021/07/04 06:50:18;;;;;;;8.77;2.88;;;24.30;68.10;;;;;;5048850;28;20147;-51
2021/07/04 06:52:48;;;;;;;7.13;2.30;;;24.30;68.20;;;;;;5047037;28;20435;-51
2021/07/04 06:55:16;;;;;;;7.97;3.28;;;24.30;68.00;;;;;;5054757;28;20139;-52
2021/07/04 06:57:42;;;;;;;15.02;3.30;;;24.30;68.20;;;;;;5046495;28;20028;-52
2021/07/04 07:00:14;;;;;;;15.07;3.13;;;24.30;68.10;;;;;;5048054;28;20091;-51
2021/07/04 07:02:40;;;;;;;11.35;3.28;;;24.30;68.20;;;;;;5048987;28;20025;-50
2021/07/04 07:05:08;;;;;;;9.57;3.25;;;24.30;68.20;;;;;;5044955;28;20025;-51
2021/07/04 07:07:34;;;;;;;7.90;2.85;;;24.30;68.30;;;;;;5046594;28;20040;-50
2021/07/04 07:10:00;;;;;;;10.35;3.85;;;24.30;68.40;;;;;;5046664;28;20060;-51
2021/07/04 07:12:26;;;;;;;6.43;3.28;;;24.30;68.30;;;;;;5042556;28;20293;-52
2021/07/04 07:14:52;;;;;;;14.10;4.03;;;24.30;68.30;;;;;;5045249;28;20033;-52
2021/07/04 07:17:20;;;;;;;7.07;2.97;;;24.30;68.30;;;;;;5045959;28;20020;-50
2021/07/04 07:19:48;;;;;;;6.57;3.10;;;24.30;68.10;;;;;;5043886;28;20116;-52
2021/07/04 07:22:14;;;;;;;9.35;3.00;;;24.30;68.10;;;;;;5045125;28;20025;-51
2021/07/04 07:24:39;;;;;;;9.65;2.88;;;24.20;68.10;;;;;;5040313;28;20017;-51
2021/07/04 07:27:05;;;;;;;6.68;2.88;;;24.30;68.20;;;;;;5045178;28;20221;-52
2021/07/04 07:29:30;;;;;;;6.57;3.13;;;24.30;68.70;;;;;;5045151;28;20029;-51
2021/07/04 07:31:56;;;;;;;8.13;3.40;;;24.30;68.10;;;;;;5047201;28;20014;-51
2021/07/04 07:34:23;;;;;;;6.72;2.90;;;24.30;68.00;;;;;;5042924;28;20779;-49
2021/07/04 07:36:50;;;;;;;6.82;2.83;;;24.30;68.00;;;;;;5044575;28;20574;-51
2021/07/04 07:39:15;;;;;;;8.50;2.90;;;24.20;67.90;;;;;;5045932;28;20571;-50
2021/07/04 07:41:42;;;;;;;5.55;2.58;;;24.30;67.90;;;;;;5047139;28;20108;-52
2021/07/04 07:44:08;;;;;;;6.75;2.70;;;24.30;67.90;;;;;;5045094;28;20411;-51
2021/07/04 07:46:34;;;;;;;7.20;3.20;;;24.20;67.80;;;;;;5046182;28;20135;-51
2021/07/04 07:48:59;;;;;;;8.07;3.35;;;24.20;67.80;;;;;;5042218;28;20485;-52
2021/07/04 07:51:25;;;;;;;5.10;3.28;;;24.20;67.80;;;;;;5031333;28;20071;-50
2021/07/04 07:53:51;;;;;;;7.25;2.90;;;24.20;67.80;;;;;;5035329;28;20028;-52
2021/07/04 07:56:17;;;;;;;8.90;3.33;;;24.30;67.70;;;;;;5029720;28;20058;-52
2021/07/04 07:58:44;;;;;;;8.48;3.30;;;24.30;67.50;;;;;;5031336;28;20041;-50
2021/07/04 08:01:10;;;;;;;7.38;2.97;;;24.30;67.30;;;;;;5040764;28;20033;-52
2021/07/04 08:03:37;;;;;;;6.68;3.33;;;24.30;67.40;;;;;;5042400;28;20056;-51
2021/07/04 08:06:03;;;;;;;5.40;2.80;;;24.20;67.60;;;;;;5040274;28;20036;-51
2021/07/04 08:08:29;;;;;;;6.85;2.88;;;24.30;67.60;;;;;;5039000;28;20016;-51
2021/07/04 08:10:54;;;;;;;6.90;3.28;;;24.30;67.40;;;;;;5037595;28;20518;-50
2021/07/04 08:13:20;;;;;;;7.65;3.63;;;24.30;67.30;;;;;;5040373;28;20032;-52
2021/07/04 08:15:45;;;;;;;6.47;3.33;;;24.30;67.50;;;;;;5034805;28;20100;-50
2021/07/04 08:18:11;;;;;;;8.40;3.58;;;24.30;67.60;;;;;;5027327;28;20650;-52
2021/07/04 08:20:37;;;;;;;8.23;3.47;;;24.30;67.40;;;;;;5023690;28;20735;-50
2021/07/04 08:25:14;;;;;;;5.68;3.45;;;24.30;67.30;;;;;;5058746;28;20422;-51
2021/07/04 08:27:41;;;;;;;10.68;3.85;;;24.30;67.90;;;;;;5059561;28;20029;-52
2021/07/04 08:30:09;;;;;;;7.05;3.08;;;24.30;67.90;;;;;;5073780;28;20025;-50
2021/07/04 08:32:35;;;;;;;7.95;3.58;;;24.30;67.80;;;;;;5059372;28;20024;-50
2021/07/04 08:35:01;;;;;;;6.10;3.28;;;24.30;67.90;;;;;;5057929;28;20019;-52
2021/07/04 08:37:26;;;;;;;6.80;3.88;;;24.30;67.90;;;;;;5058859;28;20438;-51
2021/07/04 08:39:52;;;;;;;9.65;3.58;;;24.30;67.90;;;;;;5058966;28;20387;-51
2021/07/04 08:42:18;;;;;;;8.07;3.22;;;24.30;67.60;;;;;;5058298;28;20017;-52
2021/07/04 08:44:54;;;;;;;5.43;2.80;;;24.30;67.70;;;;;;5059027;28;20701;-51
2021/07/04 08:47:22;;;;;;;7.65;3.17;;;24.30;67.70;;;;;;5048355;28;20039;-51
2021/07/04 08:49:49;;;;;;;6.57;3.95;;;24.30;67.70;;;;;;5039535;28;20083;-51
2021/07/04 08:52:15;;;;;;;6.07;2.83;;;24.30;67.40;;;;;;5043853;28;20033;-52
2021/07/04 08:54:42;;;;;;;9.90;3.28;;;24.30;67.30;;;;;;5045107;28;20028;-52
2021/07/04 08:57:11;;;;;;;7.53;2.90;;;24.30;67.40;;;;;;5036112;28;20063;-51
2021/07/04 08:59:38;;;;;;;8.65;3.38;;;24.30;67.40;;;;;;5059213;28;20652;-51
2021/07/04 09:02:05;;;;;;;6.90;3.30;;;24.30;67.60;;;;;;5059308;28;20570;-53
2021/07/04 09:04:31;;;;;;;10.88;3.83;;;24.30;67.50;;;;;;5058929;28;20538;-52
2021/07/04 09:06:59;;;;;;;12.73;4.60;;;24.30;67.40;;;;;;5055791;28;20025;-51
2021/07/04 09:09:28;;;;;;;12.73;4.22;;;24.30;67.20;;;;;;5057757;28;20025;-51
2021/07/04 09:11:55;;;;;;;11.90;3.50;;;24.30;67.20;;;;;;5058623;28;20047;-50
2021/07/04 09:14:58;;;;;;;9.55;2.88;;;24.30;67.20;;;;;;5058844;28;20463;-51
2021/07/04 09:17:34;;;;;;;6.70;3.60;;;24.30;67.10;;;;;;5056186;28;20547;-50
2021/07/04 09:20:00;;;;;;;9.73;3.35;;;24.30;67.10;;;;;;5054564;28;20049;-52
2021/07/04 09:22:28;;;;;;;7.07;3.50;;;24.30;67.00;;;;;;5055544;28;20115;-52
2021/07/04 09:25:04;;;;;;;10.50;3.88;;;24.30;67.00;;;;;;5056930;28;20045;-53
2021/07/04 09:27:30;;;;;;;8.85;3.65;;;24.30;67.00;;;;;;5054940;28;20012;-51
2021/07/04 09:29:56;;;;;;;8.18;3.55;;;24.30;67.00;;;;;;5056836;28;20017;-52
2021/07/04 09:32:28;;;;;;;13.45;4.22;;;24.30;67.00;;;;;;5056822;28;21036;-51
2021/07/04 09:35:00;;;;;;;14.15;8.23;;;24.30;67.00;;;;;;5052049;28;20057;-52
2021/07/04 09:37:35;;;;;;;7.35;4.13;;;24.30;67.20;;;;;;5043605;28;20765;-51
2021/07/04 09:40:33;;;;;;;12.30;8.80;;;24.30;67.20;;;;;;5043227;28;20079;-51
2021/07/04 09:43:19;;;;;;;14.40;8.57;;;24.40;67.50;;;;;;5041187;28;20064;-50
2021/07/04 09:46:04;;;;;;;17.92;8.65;;;24.30;67.40;;;;;;5043309;28;20029;-50
2021/07/04 09:48:29;;;;;;;14.35;8.05;;;24.30;67.40;;;;;;5043005;28;20021;-51
2021/07/04 09:50:58;;;;;;;15.07;7.85;;;24.40;67.40;;;;;;5043408;28;20029;-52
2021/07/04 09:53:46;;;;;;;13.55;8.43;;;24.40;67.40;;;;;;5044925;28;20013;-52
2021/07/04 09:56:19;;;;;;;16.23;8.27;;;24.40;67.50;;;;;;5044772;28;20013;-52
2021/07/04 09:58:50;;;;;;;17.77;8.13;;;24.40;67.50;;;;;;5044847;28;20029;-51
2021/07/04 10:01:42;;;;;;;14.52;7.78;;;24.40;67.50;;;;;;5042518;28;20021;-52
2021/07/04 10:04:26;;;;;;;15.57;8.48;;;24.40;67.60;;;;;;5043902;28;20064;-51
2021/07/04 10:06:53;;;;;;;16.23;8.25;;;24.40;67.80;;;;;;5045142;28;20021;-51
2021/07/04 10:09:25;;;;;;;15.63;8.23;;;24.40;67.90;;;;;;5045006;28;20023;-52
2021/07/04 10:11:51;;;;;;;15.15;8.25;;;24.40;68.00;;;;;;5044932;28;20087;-50
2021/07/04 10:14:17;;;;;;;13.35;7.70;;;24.50;68.20;;;;;;5044779;28;20108;-50
2021/07/04 10:16:44;;;;;;;14.50;8.63;;;24.50;68.20;;;;;;5044885;28;20104;-51
2021/07/04 10:19:22;;;;;;;12.35;7.50;;;24.50;68.20;;;;;;5044808;28;20108;-51
2021/07/04 10:21:55;;;;;;;14.25;7.32;;;24.50;68.20;;;;;;5044753;28;20423;-51
2021/07/04 10:24:22;;;;;;;14.23;7.38;;;24.50;68.30;;;;;;5044646;28;20165;-50
2021/07/04 10:28:59;;;;;;;14.90;8.23;;;24.50;67.90;;;;;;5050510;28;20507;-51
2021/07/04 10:31:30;;;;;;;13.20;7.13;;;24.50;68.30;;;;;;5037165;28;20092;-51
2021/07/04 10:34:04;;;;;;;15.10;7.13;;;24.50;68.30;;;;;;5035910;28;20391;-52
2021/07/04 10:36:32;;;;;;;12.80;7.40;;;24.50;68.30;;;;;;5032344;28;20029;-52
2021/07/04 10:39:09;;;;;;;11.82;7.22;;;24.50;68.30;;;;;;5031328;28;20040;-52
2021/07/04 10:41:36;;;;;;;15.13;7.70;;;24.50;68.40;;;;;;5028826;28;20017;-50
2021/07/04 10:44:06;;;;;;;14.07;6.90;;;24.50;68.30;;;;;;5036906;28;20033;-51
2021/07/04 10:46:44;;;;;;;14.00;6.88;;;24.50;68.40;;;;;;5029315;28;20651;-51
2021/07/04 10:49:14;;;;;;;10.02;6.80;;;24.60;68.40;;;;;;5026544;28;20126;-51
2021/07/04 10:52:06;;;;;;;11.50;7.13;;;24.50;68.40;;;;;;5035516;28;20482;-51
2021/07/04 10:54:43;;;;;;;11.55;5.97;;;24.50;68.40;;;;;;5026599;28;20021;-52
2021/07/04 10:58:12;;;;;;;11.98;6.65;;;24.60;68.00;;;;;;5094906;27;20499;-51
2021/07/04 11:00:41;;;;;;;11.05;5.97;;;24.60;68.40;;;;;;5079455;28;20182;-51
2021/07/04 11:03:12;;;;;;;12.20;6.18;;;24.50;68.40;;;;;;5074619;28;20029;-52
2021/07/04 11:05:40;;;;;;;9.90;6.07;;;24.60;68.50;;;;;;5074737;28;20881;-51
2021/07/04 11:08:10;;;;;;;11.75;6.85;;;24.50;68.40;;;;;;5076065;28;20029;-52
2021/07/04 11:10:40;;;;;;;13.20;6.47;;;24.60;68.50;;;;;;5074264;28;20185;-51
2021/07/04 11:13:09;;;;;;;10.18;5.88;;;24.60;68.60;;;;;;5083926;28;20029;-51
2021/07/04 11:15:39;;;;;;;11.52;5.95;;;24.60;68.60;;;;;;5080428;28;20802;-52
2021/07/04 11:18:05;;;;;;;11.32;5.47;;;24.60;68.60;;;;;;5082124;28;20044;-51
2021/07/04 11:20:40;;;;;;;9.35;5.85;;;24.60;68.60;;;;;;5080257;28;20023;-52
2021/07/04 11:23:10;;;;;;;12.32;5.78;;;24.60;68.60;;;;;;5078146;28;20033;-51
2021/07/04 11:25:44;;;;;;;9.20;5.63;;;24.60;68.70;;;;;;5080229;28;20406;-51
2021/07/04 11:28:16;;;;;;;9.77;5.60;;;24.60;68.60;;;;;;5078794;28;20028;-52
2021/07/04 11:31:12;;;;;;;9.48;6.00;;;24.60;68.60;;;;;;5084754;28;20639;-52
2021/07/04 11:33:42;;;;;;;11.32;5.07;;;24.70;68.60;;;;;;5083874;28;20020;-51
2021/07/04 11:36:08;;;;;;;7.63;5.20;;;24.60;68.60;;;;;;5080184;28;20032;-51
2021/07/04 11:38:45;;;;;;;10.68;5.60;;;24.60;68.60;;;;;;5078304;28;20051;-51
2021/07/04 11:42:25;;;;;;;8.80;5.78;;;24.60;68.20;;;;;;5053787;28;20486;-50
2021/07/04 11:44:50;;;;;;;11.77;5.25;;;24.60;68.60;;;;;;5037546;28;20111;-52
2021/07/04 11:47:16;;;;;;;9.25;5.05;;;24.70;68.70;;;;;;5038074;28;20088;-52
2021/07/04 11:51:45;;;;;;;10.13;5.25;;;24.60;68.10;;;;;;5093307;27;20439;-51
2021/07/04 11:54:22;;;;;;;10.60;5.22;;;24.70;68.70;;;;;;5093543;28;20227;-51
2021/07/04 11:56:52;;;;;;;11.45;5.03;;;24.70;68.50;;;;;;5090519;28;20491;-53
2021/07/04 11:59:27;;;;;;;13.20;4.85;;;24.70;68.50;;;;;;5089135;28;20048;-51
2021/07/04 12:01:57;;;;;;;11.52;5.43;;;24.70;68.40;;;;;;5082034;28;20033;-51
2021/07/04 12:04:30;;;;;;;10.23;5.13;;;24.70;68.20;;;;;;5092702;28;20695;-52
2021/07/04 12:07:05;;;;;;;8.55;5.38;;;24.70;68.30;;;;;;5079646;28;20047;-52
2021/07/04 12:09:40;;;;;;;9.43;4.68;;;24.60;67.90;;;;;;5082980;28;20033;-51
2021/07/04 12:12:12;;;;;;;7.88;5.07;;;24.60;67.80;;;;;;5070618;28;20028;-51
2021/07/04 12:14:38;;;;;;;7.32;4.90;;;24.60;67.60;;;;;;5063777;28;20024;-51
2021/07/04 12:17:25;;;;;;;7.65;5.25;;;24.60;67.40;;;;;;5071202;28;20516;-53
2021/07/04 12:20:12;;;;;;;7.80;4.95;;;24.60;67.30;;;;;;5063032;28;20067;-51
2021/07/04 12:22:56;;;;;;;8.85;5.15;;;24.60;67.20;;;;;;5068823;28;20060;-50
2021/07/04 12:25:38;;;;;;;9.43;5.18;;;24.60;66.90;;;;;;5072189;27;20450;-51
2021/07/04 12:28:12;;;;;;;8.10;4.65;;;24.60;67.80;;;;;;5069756;28;20383;-51
2021/07/04 12:30:45;;;;;;;10.10;4.55;;;24.60;67.20;;;;;;5052582;28;20020;-51
2021/07/04 12:33:20;;;;;;;9.07;4.82;;;24.60;67.20;;;;;;5051196;28;20049;-51
2021/07/04 12:35:56;;;;;;;9.35;4.95;;;24.70;67.30;;;;;;5059025;28;20597;-52
2021/07/04 12:38:25;;;;;;;7.78;4.70;;;24.60;67.20;;;;;;5051066;28;20036;-51
2021/07/04 12:42:04;;;;;;;15.05;5.32;;;24.60;66.70;;;;;;5089626;27;1283589;-51
2021/07/04 12:44:30;;;;;;;9.05;4.97;;;24.60;67.10;;;;;;5114362;28;20028;-52
2021/07/04 12:46:56;;;;;;;9.38;4.82;;;24.60;67.00;;;;;;5118603;27;20031;-50
2021/07/04 12:50:16;;;;;;;9.13;5.15;;;24.60;66.50;;;;;;5090773;27;20848;-51
2021/07/04 12:52:56;;;;;;;11.13;4.60;;;24.70;66.80;;;;;;5073024;28;20095;-51
2021/07/04 12:55:43;;;;;;;9.50;4.45;;;24.70;66.70;;;;;;5077206;28;20376;-51
2021/07/04 12:58:39;;;;;;;7.90;5.25;;;24.70;66.60;;;;;;5072788;28;20042;-52
2021/07/04 13:01:35;;;;;;;7.00;4.10;;;24.60;66.50;;;;;;5074800;28;20678;-52
2021/07/04 13:04:03;;;;;;;9.45;5.00;;;24.70;66.80;;;;;;5071849;28;20075;-51
2021/07/04 13:06:49;;;;;;;8.80;5.07;;;24.60;66.60;;;;;;5076650;28;20022;-51
2021/07/04 13:09:48;;;;;;;7.63;4.93;;;24.60;66.70;;;;;;5069896;28;20035;-51
2021/07/04 13:12:18;;;;;;;8.75;4.65;;;24.60;66.90;;;;;;5081652;28;20485;-51
2021/07/04 13:14:58;;;;;;;9.48;4.47;;;24.60;66.70;;;;;;5074834;28;20748;-52
2021/07/04 13:17:29;;;;;;;10.45;4.85;;;24.60;66.60;;;;;;5072507;28;20103;-52
2021/07/04 13:20:04;;;;;;;16.80;5.05;;;24.70;66.60;;;;;;5076998;28;20056;-51
2021/07/04 13:22:35;;;;;;;12.35;4.70;;;24.60;66.50;;;;;;5072752;28;20032;-52
2021/07/04 13:25:04;;;;;;;9.60;5.03;;;24.60;66.50;;;;;;5075962;28;20513;-52
2021/07/04 13:27:35;;;;;;;7.68;4.07;;;24.70;66.50;;;;;;5073447;28;20055;-51
2021/07/04 13:30:20;;;;;;;8.57;4.15;;;24.70;66.50;;;;;;5076824;28;20040;-51
2021/07/04 13:33:03;;;;;;;10.57;4.35;;;24.60;66.30;;;;;;5072600;28;20044;-52
2021/07/04 13:35:32;;;;;;;12.52;4.60;;;24.70;66.10;;;;;;5072249;28;20048;-52
2021/07/04 13:38:13;;;;;;;13.85;4.13;;;24.70;65.90;;;;;;5070319;28;20039;-51
2021/07/04 13:40:41;;;;;;;7.60;4.40;;;24.70;65.60;;;;;;5072519;28;20050;-52
2021/07/04 13:43:07;;;;;;;12.45;4.80;;;24.70;65.70;;;;;;5072460;28;20692;-50
2021/07/04 13:45:40;;;;;;;7.97;4.35;;;24.70;65.60;;;;;;5072736;28;20036;-52
2021/07/04 13:48:16;;;;;;;10.20;4.55;;;24.70;65.80;;;;;;5071862;28;20052;-51
2021/07/04 13:50:53;;;;;;;7.53;4.38;;;24.70;65.70;;;;;;5072014;28;20388;-52
2021/07/04 13:53:20;;;;;;;9.35;4.32;;;24.80;65.80;;;;;;5072259;28;20123;-51
2021/07/04 13:55:47;;;;;;;6.72;4.03;;;24.70;65.90;;;;;;5073402;28;20032;-51
2021/07/04 13:58:16;;;;;;;10.10;3.95;;;24.80;65.50;;;;;;5073451;28;20026;-52
2021/07/04 14:00:43;;;;;;;8.90;3.78;;;24.80;65.30;;;;;;5061428;28;20526;-51
2021/07/04 14:03:13;;;;;;;7.18;3.65;;;24.80;65.20;;;;;;5058954;28;20026;-51
2021/07/04 14:05:39;;;;;;;9.15;3.63;;;24.80;65.00;;;;;;5059320;28;20723;-52
2021/07/04 14:08:07;;;;;;;7.20;3.95;;;24.80;64.90;;;;;;5058402;28;20460;-51
2021/07/04 14:10:32;;;;;;;6.97;3.42;;;24.80;64.80;;;;;;5050144;28;20035;-51
2021/07/04 14:12:59;;;;;;;10.48;4.35;;;24.80;64.60;;;;;;5055258;28;20037;-51
2021/07/04 14:15:25;;;;;;;7.05;3.60;;;24.80;64.40;;;;;;5055595;28;20024;-51
2021/07/04 14:17:51;;;;;;;8.77;3.75;;;24.70;64.30;;;;;;5054298;28;20059;-51
2021/07/04 14:21:06;;;;;;;9.35;3.60;;;24.80;63.80;;;;;;5050757;28;20583;-51
2021/07/04 14:23:33;;;;;;;7.70;3.45;;;24.70;64.20;;;;;;5058641;28;20142;-51
2021/07/04 14:26:01;;;;;;;5.47;2.85;;;24.80;64.80;;;;;;5062761;28;20183;-52
2021/07/04 14:29:59;;;;;;;5.35;3.25;;;24.70;63.70;;;;;;5046602;28;20620;-53
2021/07/04 14:32:31;;;;;;;5.50;3.22;;;24.70;64.10;;;;;;5031049;28;20121;-52
2021/07/04 14:34:57;;;;;;;6.88;3.53;;;24.70;64.10;;;;;;5032338;28;20021;-51
2021/07/04 14:37:23;;;;;;;4.95;3.00;;;24.70;64.00;;;;;;5031478;28;20035;-52
2021/07/04 14:39:49;;;;;;;5.32;3.20;;;24.70;63.80;;;;;;5028608;28;20033;-52
2021/07/04 14:42:14;;;;;;;6.82;2.95;;;24.80;63.70;;;;;;5029692;28;20044;-53
2021/07/04 14:44:40;;;;;;;5.85;3.53;;;24.80;63.80;;;;;;5030135;28;20029;-53
2021/07/04 14:47:06;;;;;;;6.13;3.08;;;24.80;64.00;;;;;;5026535;28;20018;-54
2021/07/04 14:49:32;;;;;;;6.90;2.85;;;24.80;63.90;;;;;;5034694;28;20041;-51
2021/07/04 14:51:59;;;;;;;5.63;3.33;;;24.80;64.10;;;;;;5031010;28;20029;-49
2021/07/04 14:54:32;;;;;;;6.75;3.30;;;24.80;63.80;;;;;;5028602;28;20052;-51
2021/07/04 14:57:17;;;;;;;6.38;2.90;;;24.80;63.60;;;;;;5032842;28;20061;-50
2021/07/04 14:59:44;;;;;;;5.35;3.22;;;24.80;63.50;;;;;;5030199;28;20049;-51
2021/07/04 15:02:17;;;;;;;4.90;2.67;;;24.80;63.40;;;;;;5026810;28;20087;-52
2021/07/04 15:04:42;;;;;;;4.43;2.70;;;24.80;63.20;;;;;;5028647;28;20032;-51
2021/07/04 15:07:08;;;;;;;6.25;2.83;;;24.80;63.30;;;;;;5031420;28;20034;-50
2021/07/04 15:09:35;;;;;;;4.55;2.67;;;24.80;63.40;;;;;;5029784;28;20562;-50
2021/07/04 15:12:01;;;;;;;5.68;2.90;;;24.90;63.10;;;;;;5029163;28;20029;-51
2021/07/04 15:14:27;;;;;;;5.88;3.05;;;24.80;63.20;;;;;;5034466;28;20448;-51
2021/07/04 15:16:52;;;;;;;5.10;3.17;;;24.80;63.30;;;;;;5022759;28;20038;-52
2021/07/04 15:19:18;;;;;;;5.80;2.75;;;24.80;63.30;;;;;;5032628;28;20097;-51
2021/07/04 15:21:44;;;;;;;5.07;2.78;;;24.80;63.40;;;;;;5035553;28;20029;-51
2021/07/04 15:24:10;;;;;;;6.15;3.08;;;24.80;63.40;;;;;;5028801;28;20033;-51
2021/07/04 15:26:36;;;;;;;4.78;2.63;;;24.80;63.50;;;;;;5028540;28;20033;-51
2021/07/04 15:29:03;;;;;;;4.90;2.75;;;24.80;63.40;;;;;;5032072;28;20053;-50
2021/07/04 15:31:29;;;;;;;4.53;2.47;;;24.80;63.50;;;;;;5031395;28;20102;-50
2021/07/04 15:33:55;;;;;;;8.68;3.60;;;24.80;63.50;;;;;;5032712;28;20134;-52
2021/07/04 15:36:21;;;;;;;4.72;2.47;;;24.80;63.70;;;;;;5030753;28;20485;-52
2021/07/04 15:38:48;;;;;;;4.65;2.70;;;24.80;63.70;;;;;;5027579;28;20040;-51
2021/07/04 15:41:14;;;;;;;4.22;2.40;;;24.80;63.80;;;;;;5018221;28;20100;-50
2021/07/04 15:43:43;;;;;;;6.35;2.70;;;24.80;63.80;;;;;;5018941;28;20071;-50
2021/07/04 15:46:09;;;;;;;6.15;2.75;;;24.80;64.00;;;;;;5012829;28;20025;-50
2021/07/04 15:48:34;;;;;;;6.22;3.08;;;24.80;64.40;;;;;;5013693;28;20582;-51
2021/07/04 15:51:00;;;;;;;6.50;3.08;;;24.80;64.30;;;;;;5021594;28;20025;-51
2021/07/04 15:53:27;;;;;;;6.53;3.00;;;24.80;64.40;;;;;;5021818;28;20048;-52
2021/07/04 15:55:53;;;;;;;6.90;2.72;;;24.80;64.60;;;;;;5021794;28;20202;-50
2021/07/04 15:58:18;;;;;;;8.27;2.83;;;24.80;64.50;;;;;;5021767;28;20481;-51
2021/07/04 16:00:48;;;;;;;4.47;2.40;;;24.80;64.90;;;;;;5021936;28;20025;-51
2021/07/04 16:03:14;;;;;;;6.68;2.80;;;24.80;64.20;;;;;;5021599;28;20492;-50
2021/07/04 16:05:41;;;;;;;6.57;3.05;;;24.80;63.90;;;;;;5021670;28;20033;-50
2021/07/04 16:08:09;;;;;;;7.03;2.33;;;24.80;63.80;;;;;;5012644;28;20022;-51
2021/07/04 16:10:36;;;;;;;4.47;2.67;;;24.80;63.80;;;;;;5001791;28;20069;-50
2021/07/04 16:13:02;;;;;;;5.43;3.05;;;24.80;63.80;;;;;;5001999;28;20460;-51
2021/07/04 16:15:28;;;;;;;6.90;2.55;;;24.70;63.70;;;;;;5001826;28;20032;-51